Fort Douglas, Utah
Current Conditions -  °F | °C
As of 6:53 AM on Monday 24 Nov 2014 (Local Time) from KSLC Reporting Station
Broken Clouds Broken Clouds  
Wind Chill: 27°   Ceiling: 6500
Heat Index: 37°   Visibility: 10mi
Dew Point: 24°   Wind: 20mph
Humidity: 59%   Direction: 290°WNW
Pressure: 30.22"   Gusts: 24mph
Location:  40.7638°N, 111.833°W
Report Text: KSLC 241353Z 29017G21KT 10SM BKN065 BKN085 03/M04 A3022 RMK AO2 SLP239 T00281044
Loading
Personal Weather Stations






























Interactive Weather Map New forecast layout! Learn more

10-Day Weather Forecast

Advertisements
Track Severe Weather on mobile